• Join FlightAware (Why Join?)
  • Login
  • US Flag 
01:15AM EDT


 

Airport Tracker/Info


-or-


 

Live Flight TrackerFlight Track Log ✈ UAL5829 ✈ 25-Apr-2013 ✈ KORD - CYWG

Flight Track Log - Related Links

Times and Time Zones

All times are in EDT time to prevent confusion due to time zone crossing. See the UAL5829 flight status page for this flight to view local times or setup timezone preferences in your user account.

Time Position Orientation Groundspeed Altitude Reporting Facility
EDT Latitude Longitude Course Direction KTS MPH feet Rate Location/Type
06:50PM 42.0000 -87.9333 346° North 163 188 1,900  Level Chicago TRACON
06:51PM 42.0333 -87.9667 323° Northwest 188 216 3,800 2,220 Climbing Chicago TRACON
06:53PM 42.1444 -88.0197 341° North 255 293 7,900 2,220 Climbing Chicago Center
06:54PM 42.2172 -88.0172 North 263 303 10,400 1,740 Climbing Chicago Center
06:55PM 42.2964 -88.0156 North 282 325 11,500 1,200 Climbing Chicago Center
06:56PM 42.5516 -88.0949 346° North  Level FlightAware Approximate
06:56PM 42.3833 -88.0481 345° North 318 366 13,000  Level Chicago Center
06:57PM 42.4844 -88.0825 346° North 321 369 15,100 1,740 Climbing Chicago Center
06:58PM 42.5714 -88.1092 347° North 319 367 16,700 1,380 Climbing Chicago Center
06:59PM 42.6581 -88.1375 346° North 320 368 18,000 1,260 Climbing Chicago Center
07:00PM 42.7461 -88.1650 347° North 323 372 19,400 1,380 Climbing Chicago Center
07:01PM 42.8508 -88.1981 347° North 331 381 20,900 1,320 Climbing Chicago Center
07:02PM 42.9425 -88.2283 346° North 337 388 22,200 1,200 Climbing Chicago Center
07:03PM 43.0347 -88.2578 347° North 341 392 23,500 1,200 Climbing Chicago Center
07:04PM 43.1261 -88.2925 345° North 340 391 24,700 1,200 Climbing Chicago Center
07:05PM 43.2014 -88.3678 324° Northwest 332 382 26,000 1,320 Climbing Chicago Center
07:06PM 43.2758 -88.4403 325° Northwest 327 376 27,500 1,500 Climbing Chicago Center
07:07PM 43.3594 -88.5231 324° Northwest 316 364 29,200 1,500 Climbing Chicago Center
07:08PM 43.4261 -88.5892 324° Northwest 313 360 30,600 1,440 Climbing Chicago Center
07:09PM 43.5011 -88.6639 324° Northwest 306 352 32,200 1,260 Climbing Chicago Center
07:10PM 43.5711 -88.7347 324° Northwest 308 354 33,300 960 Climbing Chicago Center
07:11PM 43.6425 -88.8056 324° Northwest 314 361 34,300 960 Climbing Chicago Center
07:12PM 43.6781 -88.8408 324° Northwest 315 362 34,800 960 Climbing Minneapolis Center
07:12PM 43.7136 -88.8778 323° Northwest 317 365 35,300 960 Climbing Chicago Center
07:13PM 43.7497 -88.9131 325° Northwest 318 366 35,800 420 Climbing Minneapolis Center
07:14PM 43.8219 -88.9858 324° Northwest 320 368 36,000 60 Climbing Minneapolis Center
07:15PM 43.9000 -89.0656 324° Northwest 342 394 36,000  Level Minneapolis Center
07:16PM 43.9950 -89.1617 324° Northwest 361 415 36,000  Level Minneapolis Center
07:17PM 44.0764 -89.2442 324° Northwest 362 417 36,000  Level Minneapolis Center
07:18PM 44.1539 -89.3236 324° Northwest 348 400 36,000  Level Minneapolis Center
07:19PM 44.2325 -89.4044 324° Northwest 351 404 36,000  Level Minneapolis Center
07:20PM 44.3142 -89.4886 324° Northwest 362 417 36,000  Level Minneapolis Center
07:21PM 44.4233 -89.6022 323° Northwest 366 421 36,000  Level Minneapolis Center
07:22PM 44.5036 -89.6850 324° Northwest 361 415 36,000  Level Minneapolis Center
07:23PM 44.5833 -89.7658 324° Northwest 355 409 36,000  Level Minneapolis Center
07:24PM 44.6631 -89.8506 323° Northwest 358 412 36,000  Level Minneapolis Center
07:25PM 44.7414 -89.9333 323° Northwest 354 407 36,000  Level Minneapolis Center
07:27PM 44.8353 -90.0311 324° Northwest 357 411 36,000  Level Minneapolis Center
07:28PM 44.9053 -90.1053 323° Northwest 357 411 36,000  Level Minneapolis Center
07:29PM 45.0006 -90.2058 323° Northwest 356 410 36,000  Level Minneapolis Center
07:30PM 45.0806 -90.2919 323° Northwest 360 414 36,000  Level Minneapolis Center
07:31PM 45.1614 -90.3781 323° Northwest 363 418 36,000  Level Minneapolis Center
07:32PM 45.2422 -90.4639 323° Northwest 363 418 36,000  Level Minneapolis Center
07:33PM 45.3225 -90.5514 323° Northwest 363 418 36,000  Level Minneapolis Center
07:34PM 45.4036 -90.6400 323° Northwest 366 421 36,000  Level Minneapolis Center
07:35PM 45.4850 -90.7275 323° Northwest 366 421 36,000  Level Minneapolis Center
07:36PM 45.5817 -90.8344 322° Northwest 365 420 36,000  Level Minneapolis Center
07:37PM 45.6639 -90.9211 324° Northwest 366 421 36,000  Level Minneapolis Center
07:38PM 45.7464 -91.0122 322° Northwest 372 428 36,000  Level Minneapolis Center
07:39PM 45.8275 -91.1014 323° Northwest 368 423 36,000  Level Minneapolis Center
07:40PM 45.9094 -91.1906 323° Northwest 368 423 36,000  Level Minneapolis Center
07:41PM 45.9892 -91.2814 322° Northwest 366 421 36,000  Level Minneapolis Center
07:42PM 46.0703 -91.3725 322° Northwest 368 423 36,000  Level Minneapolis Center
07:43PM 46.1689 -91.4817 323° Northwest 371 427 36,000  Level Minneapolis Center
07:44PM 46.2511 -91.5725 323° Northwest 373 429 36,000  Level Minneapolis Center
07:45PM 46.3281 -91.6589 322° Northwest 370 426 36,000  Level Minneapolis Center
07:46PM 46.4103 -91.7514 322° Northwest 376 433 36,000  Level Minneapolis Center
07:47PM 46.4925 -91.8439 322° Northwest 375 432 36,000  Level Minneapolis Center
07:48PM 46.5906 -91.9564 322° Northwest 376 433 36,000  Level Minneapolis Center
07:49PM 46.6708 -92.0522 321° Northwest 374 430 36,000  Level Minneapolis Center
07:50PM 46.7533 -92.1478 322° Northwest 379 436 36,000  Level Minneapolis Center
07:51PM 46.8342 -92.2422 321° Northwest 376 433 36,000  Level Minneapolis Center
07:52PM 46.9144 -92.3428 319° Northwest 378 435 36,000  Level Minneapolis Center
07:53PM 46.9953 -92.4403 321° Northwest 379 436 36,000  Level Minneapolis Center
07:54PM 47.0922 -92.5617 320° Northwest 383 441 36,000 -60 Level Minneapolis Center
07:55PM 47.1733 -92.6628 320° Northwest 383 441 35,900  Descending Minneapolis Center
07:56PM 47.2550 -92.7639 320° Northwest 385 443 36,000  Climbing Minneapolis Center
07:58PM 47.3361 -92.8650 320° Northwest 385 443 36,000  Level Minneapolis Center
07:59PM 47.4325 -92.9867 320° Northwest 386 444 36,000  Level Minneapolis Center
08:00PM 47.5094 -93.0883 318° Northwest 383 441 36,000  Level Minneapolis Center
08:01PM 47.5889 -93.1875 320° Northwest 381 438 36,000  Level Minneapolis Center
08:02PM 47.6706 -93.2900 320° Northwest 386 444 36,000  Level Minneapolis Center
08:03PM 47.7681 -93.4142 319° Northwest 387 445 36,000  Level Minneapolis Center
08:04PM 47.8486 -93.5208 318° Northwest 390 449 36,000  Level Minneapolis Center
08:05PM 47.9303 -93.6281 319° Northwest 391 450 36,000  Level Minneapolis Center
08:06PM 48.0125 -93.7336 319° Northwest 392 451 36,000  Level Minneapolis Center
08:07PM 48.0928 -93.8386 319° Northwest 387 445 36,000  Level Minneapolis Center
08:08PM 48.1739 -93.9467 318° Northwest 389 448 36,000  Level Minneapolis Center
08:09PM 48.2703 -94.0739 319° Northwest 388 447 36,000  Level Minneapolis Center
08:10PM 48.3519 -94.1803 319° Northwest 389 448 36,000  Level Minneapolis Center
08:11PM 48.4322 -94.2883 318° Northwest 389 448 36,000  Level Minneapolis Center
08:12PM 48.5122 -94.3950 319° Northwest 387 445 36,000  Level Minneapolis Center
08:13PM 48.5906 -94.5006 318° Northwest 381 438 36,000  Level Minneapolis Center
08:14PM 48.6689 -94.6078 318° Northwest 382 440 36,000  Level Minneapolis Center
08:15PM 48.7647 -94.7372 318° Northwest 383 441 36,000  Level Minneapolis Center
08:16PM 48.8456 -94.8442 319° Northwest 386 444 36,000 -1,140 Level Minneapolis Center
08:18PM 48.9667 -95.0000 320° Northwest 380 437 33,100 -1,860 Descending Winnipeg Center
08:19PM 49.0333 -95.1000 315° West 380 437 31,200 -2,040 Descending Winnipeg Center
08:20PM 49.1167 -95.2333 314° West 380 437 29,100 -2,100 Descending Winnipeg Center
08:21PM 49.2000 -95.3333 322° Northwest 390 449 27,100 -1,980 Descending Winnipeg Center
08:22PM 49.2667 -95.4500 311° West 400 460 25,200 -2,040 Descending Winnipeg Center
08:23PM 49.3500 -95.5500 322° Northwest 400 460 23,100 -2,040 Descending Winnipeg Center
08:24PM 49.4333 -95.6833 314° West 390 449 21,200 -2,040 Descending Winnipeg Center
08:25PM 49.5167 -95.7833 322° Northwest 390 449 19,100 -2,040 Descending Winnipeg Center
08:26PM 49.5500 -95.9333 289° West 370 426 17,200 -1,680 Descending Winnipeg Center
08:27PM 49.6000 -96.0667 300° West 360 414 15,800 -1,200 Descending Winnipeg Center
08:28PM 49.6500 -96.1833 304° West 350 403 14,800 -1,080 Descending Winnipeg Center
08:29PM 49.6833 -96.3500 287° West 340 391 13,700 -1,080 Descending Winnipeg Center
08:30PM 49.7167 -96.4667 294° West 330 380 12,700 -1,080 Descending Winnipeg Center
08:31PM 49.7500 -96.5833 294° West 290 334 11,600 -1,440 Descending Winnipeg Center
08:32PM 49.7833 -96.6833 297° West 250 288 9,900 -1,800 Descending Winnipeg Center
08:33PM 49.8167 -96.7833 297° West 250 288 8,000 -1,980 Descending Winnipeg Center
08:34PM 49.8500 -96.8833 297° West 250 288 6,000 -1,920 Descending Winnipeg Center
08:35PM 49.9000 -96.9333 327° Northwest 240 276 4,200 -1,140 Descending Winnipeg Center
08:36PM 49.9500 -97.0000 319° Northwest 200 230 3,800 -360 Descending Winnipeg Center
08:37PM 50.0000 -97.0500 327° Northwest 210 242 3,500 -180 Descending Winnipeg Center
08:38PM 50.0333 -97.1000 316° Northwest 190 219 3,500 -240 Level Winnipeg Center
08:39PM 50.0167 -97.1667 249° West 150 173 3,100 -660 Descending Winnipeg Center
08:40PM 50.0000 -97.2000 232° Southwest 140 161 2,200 -720 Descending Winnipeg Center
08:41PM 49.9667 -97.2333 213° Southwest 110 127 1,700 -540 Descending Winnipeg Center
08:42PM 49.9333 -97.2333 180° South 110 127 1,200 -480 Descending Winnipeg Center
08:43PM 49.9000 -97.2333 180° South 120 138 800 -420 Descending Winnipeg Center